sensor_id;sensor_type;location;lat;lon;timestamp;pressure;altitude;pressure_sealevel;temperature;humidity
84501;BME280;74725;44.210;17.906;2024-03-23T00:55:41;98067.00;;;9.84;87.08
84501;BME280;74725;44.210;17.906;2024-03-23T00:58:08;98073.25;;;9.84;87.27
84501;BME280;74725;44.210;17.906;2024-03-23T01:00:33;98069.94;;;9.73;87.52
84501;BME280;74725;44.210;17.906;2024-03-23T01:02:59;98072.16;;;9.58;88.91
84501;BME280;74725;44.210;17.906;2024-03-23T01:05:25;98064.94;;;9.68;87.87
84501;BME280;74725;44.210;17.906;2024-03-23T01:07:50;98064.47;;;9.73;87.31
84501;BME280;74725;44.210;17.906;2024-03-23T01:10:16;98060.09;;;9.75;87.30
84501;BME280;74725;44.210;17.906;2024-03-23T01:12:42;98061.38;;;9.71;87.14
84501;BME280;74725;44.210;17.906;2024-03-23T01:15:08;98065.59;;;9.75;87.30
84501;BME280;74725;44.210;17.906;2024-03-23T01:17:33;98059.41;;;9.71;87.43
84501;BME280;74725;44.210;17.906;2024-03-23T01:19:59;98065.50;;;9.59;87.46
84501;BME280;74725;44.210;17.906;2024-03-23T01:22:25;98065.56;;;9.55;87.71
84501;BME280;74725;44.210;17.906;2024-03-23T01:24:50;98058.06;;;9.40;88.93
84501;BME280;74725;44.210;17.906;2024-03-23T01:27:16;98058.13;;;9.36;88.90
84501;BME280;74725;44.210;17.906;2024-03-23T01:29:41;98054.28;;;9.34;89.59
84501;BME280;74725;44.210;17.906;2024-03-23T01:32:07;98057.91;;;9.27;89.73
84501;BME280;74725;44.210;17.906;2024-03-23T01:34:33;98054.84;;;9.21;90.35
84501;BME280;74725;44.210;17.906;2024-03-23T01:36:58;98048.16;;;9.26;89.88
84501;BME280;74725;44.210;17.906;2024-03-23T01:39:24;98050.47;;;9.27;90.09
84501;BME280;74725;44.210;17.906;2024-03-23T01:41:50;98043.41;;;9.30;89.81
84501;BME280;74725;44.210;17.906;2024-03-23T01:44:16;98048.00;;;9.33;90.01
84501;BME280;74725;44.210;17.906;2024-03-23T01:46:43;98041.38;;;9.34;90.09
84501;BME280;74725;44.210;17.906;2024-03-23T01:49:10;98043.34;;;9.34;90.21
84501;BME280;74725;44.210;17.906;2024-03-23T01:51:36;98036.59;;;9.18;90.98
84501;BME280;74725;44.210;17.906;2024-03-23T01:54:03;98039.78;;;9.13;91.06
84501;BME280;74725;44.210;17.906;2024-03-23T01:56:29;98039.53;;;9.27;90.21
84501;BME280;74725;44.210;17.906;2024-03-23T01:58:55;98031.34;;;9.27;90.21
84501;BME280;74725;44.210;17.906;2024-03-23T02:01:21;98044.16;;;9.30;90.11
84501;BME280;74725;44.210;17.906;2024-03-23T02:03:47;98035.09;;;9.37;90.03
84501;BME280;74725;44.210;17.906;2024-03-23T02:06:12;98035.41;;;9.39;89.72
84501;BME280;74725;44.210;17.906;2024-03-23T02:08:39;98040.47;;;9.41;89.80
84501;BME280;74725;44.210;17.906;2024-03-23T02:11:05;98038.53;;;9.41;89.64
84501;BME280;74725;44.210;17.906;2024-03-23T02:13:30;98033.44;;;9.40;89.81
84501;BME280;74725;44.210;17.906;2024-03-23T02:15:57;98028.75;;;9.40;89.70
84501;BME280;74725;44.210;17.906;2024-03-23T02:18:23;98027.66;;;9.38;89.73
84501;BME280;74725;44.210;17.906;2024-03-23T02:20:49;98032.34;;;9.37;89.43
84501;BME280;74725;44.210;17.906;2024-03-23T02:23:17;98022.66;;;9.32;89.33
84501;BME280;74725;44.210;17.906;2024-03-23T02:25:45;98017.97;;;9.10;89.87
84501;BME280;74725;44.210;17.906;2024-03-23T02:28:11;98012.53;;;9.10;89.86
84501;BME280;74725;44.210;17.906;2024-03-23T02:30:37;98014.91;;;9.07;90.10
84501;BME280;74725;44.210;17.906;2024-03-23T02:33:04;97997.44;;;9.01;90.40
84501;BME280;74725;44.210;17.906;2024-03-23T02:35:30;97999.53;;;8.94;91.16
84501;BME280;74725;44.210;17.906;2024-03-23T02:37:55;98000.06;;;8.85;91.59
84501;BME280;74725;44.210;17.906;2024-03-23T02:40:25;98004.88;;;8.77;91.77
84501;BME280;74725;44.210;17.906;2024-03-23T02:42:52;98003.09;;;8.67;92.16
84501;BME280;74725;44.210;17.906;2024-03-23T02:45:18;98002.78;;;8.62;93.39
84501;BME280;74725;44.210;17.906;2024-03-23T02:47:43;97994.00;;;8.50;93.47
84501;BME280;74725;44.210;17.906;2024-03-23T02:50:09;97987.63;;;8.61;93.55
84501;BME280;74725;44.210;17.906;2024-03-23T02:52:36;97990.63;;;8.66;93.32
84501;BME280;74725;44.210;17.906;2024-03-23T02:55:02;97988.28;;;8.68;93.33
84501;BME280;74725;44.210;17.906;2024-03-23T02:57:28;97988.97;;;8.72;92.84
84501;BME280;74725;44.210;17.906;2024-03-23T02:59:54;97988.56;;;8.74;92.76
84501;BME280;74725;44.210;17.906;2024-03-23T03:02:20;97986.97;;;8.76;92.24
84501;BME280;74725;44.210;17.906;2024-03-23T03:04:45;97985.00;;;8.77;92.38
84501;BME280;74725;44.210;17.906;2024-03-23T03:07:11;97984.56;;;8.78;92.09
84501;BME280;74725;44.210;17.906;2024-03-23T03:09:36;97992.00;;;8.78;91.63
84501;BME280;74725;44.210;17.906;2024-03-23T03:12:07;97978.34;;;8.78;91.26
84501;BME280;74725;44.210;17.906;2024-03-23T03:14:34;97975.22;;;8.79;91.15
84501;BME280;74725;44.210;17.906;2024-03-23T03:16:59;97982.63;;;8.79;91.09
84501;BME280;74725;44.210;17.906;2024-03-23T03:19:25;97970.88;;;8.82;90.72
84501;BME280;74725;44.210;17.906;2024-03-23T03:21:51;97973.25;;;8.80;90.77
84501;BME280;74725;44.210;17.906;2024-03-23T03:24:18;97971.72;;;8.79;90.85
84501;BME280;74725;44.210;17.906;2024-03-23T03:26:44;97972.53;;;8.76;90.93
84501;BME280;74725;44.210;17.906;2024-03-23T03:29:09;97973.00;;;8.71;90.91
84501;BME280;74725;44.210;17.906;2024-03-23T03:31:35;97969.34;;;8.57;92.04
84501;BME280;74725;44.210;17.906;2024-03-23T03:34:01;97974.84;;;8.54;91.82
84501;BME280;74725;44.210;17.906;2024-03-23T03:36:27;97973.84;;;8.44;92.19
84501;BME280;74725;44.210;17.906;2024-03-23T03:38:53;97970.41;;;8.37;93.01
84501;BME280;74725;44.210;17.906;2024-03-23T03:41:19;97964.69;;;8.27;93.91
84501;BME280;74725;44.210;17.906;2024-03-23T03:43:44;97966.72;;;8.23;94.04
84501;BME280;74725;44.210;17.906;2024-03-23T03:46:10;97978.28;;;8.31;93.24
84501;BME280;74725;44.210;17.906;2024-03-23T03:48:36;97983.25;;;8.36;93.18
84501;BME280;74725;44.210;17.906;2024-03-23T03:51:03;97975.56;;;8.31;93.64
84501;BME280;74725;44.210;17.906;2024-03-23T03:53:28;97983.06;;;8.23;93.93
84501;BME280;74725;44.210;17.906;2024-03-23T03:55:54;97977.63;;;8.23;93.69
84501;BME280;74725;44.210;17.906;2024-03-23T03:58:20;97984.56;;;8.28;93.44
84501;BME280;74725;44.210;17.906;2024-03-23T04:00:45;97970.53;;;8.29;93.36
84501;BME280;74725;44.210;17.906;2024-03-23T04:03:11;97967.75;;;8.33;93.16
84501;BME280;74725;44.210;17.906;2024-03-23T04:05:36;97980.16;;;8.38;92.79
84501;BME280;74725;44.210;17.906;2024-03-23T04:08:03;97972.31;;;8.40;92.61
84501;BME280;74725;44.210;17.906;2024-03-23T04:10:30;97976.19;;;8.42;92.67
84501;BME280;74725;44.210;17.906;2024-03-23T04:12:55;97970.75;;;8.42;92.33
84501;BME280;74725;44.210;17.906;2024-03-23T04:15:21;97972.31;;;8.40;92.29
84501;BME280;74725;44.210;17.906;2024-03-23T04:17:47;97978.59;;;8.40;92.18
84501;BME280;74725;44.210;17.906;2024-03-23T04:20:13;97972.75;;;8.38;92.19
84501;BME280;74725;44.210;17.906;2024-03-23T04:22:42;97973.94;;;8.37;92.05
84501;BME280;74725;44.210;17.906;2024-03-23T04:25:08;97976.25;;;8.39;92.11
84501;BME280;74725;44.210;17.906;2024-03-23T04:27:38;97980.16;;;8.38;91.87
84501;BME280;74725;44.210;17.906;2024-03-23T04:30:05;97976.84;;;8.23;91.99
84501;BME280;74725;44.210;17.906;2024-03-23T04:32:36;97983.88;;;8.20;92.25
84501;BME280;74725;44.210;17.906;2024-03-23T04:35:02;97972.16;;;8.23;92.26
84501;BME280;74725;44.210;17.906;2024-03-23T04:37:32;97981.59;;;8.19;92.92
84501;BME280;74725;44.210;17.906;2024-03-23T04:39:59;97985.19;;;8.12;93.49
84501;BME280;74725;44.210;17.906;2024-03-23T04:42:25;97985.19;;;8.12;93.21
84501;BME280;74725;44.210;17.906;2024-03-23T04:44:50;97986.06;;;8.05;93.66
84501;BME280;74725;44.210;17.906;2024-03-23T04:47:16;97985.19;;;8.12;93.49
84501;BME280;74725;44.210;17.906;2024-03-23T04:49:42;97976.94;;;8.16;93.04
84501;BME280;74725;44.210;17.906;2024-03-23T04:52:07;97977.47;;;8.07;93.15
84501;BME280;74725;44.210;17.906;2024-03-23T04:54:33;97986.88;;;8.02;93.86
84501;BME280;74725;44.210;17.906;2024-03-23T04:56:59;97988.81;;;8.05;93.44
84501;BME280;74725;44.210;17.906;2024-03-23T04:59:25;97988.72;;;8.09;93.65
84501;BME280;74725;44.210;17.906;2024-03-23T05:01:50;97988.63;;;8.16;93.21
84501;BME280;74725;44.210;17.906;2024-03-23T05:04:16;97983.50;;;8.22;92.67
84501;BME280;74725;44.210;17.906;2024-03-23T05:06:41;97973.66;;;8.28;92.24
84501;BME280;74725;44.210;17.906;2024-03-23T05:09:07;97978.66;;;8.33;92.08
84501;BME280;74725;44.210;17.906;2024-03-23T05:11:40;97974.28;;;8.39;91.51
84501;BME280;74725;44.210;17.906;2024-03-23T05:14:05;97970.41;;;8.40;91.28
84501;BME280;74725;44.210;17.906;2024-03-23T05:16:31;97969.91;;;8.45;91.63
84501;BME280;74725;44.210;17.906;2024-03-23T05:18:57;97975.31;;;8.49;91.20
84501;BME280;74725;44.210;17.906;2024-03-23T05:21:23;97974.50;;;8.52;90.96
84501;BME280;74725;44.210;17.906;2024-03-23T05:23:48;97972.53;;;8.52;91.00
84501;BME280;74725;44.210;17.906;2024-03-23T05:26:14;97964.28;;;8.56;90.89
84501;BME280;74725;44.210;17.906;2024-03-23T05:28:40;97968.19;;;8.55;89.67
84501;BME280;74725;44.210;17.906;2024-03-23T05:31:06;97971.25;;;8.61;90.22
84501;BME280;74725;44.210;17.906;2024-03-23T05:33:31;97972.66;;;8.69;90.08
84501;BME280;74725;44.210;17.906;2024-03-23T05:35:58;97965.88;;;9.00;88.62
84501;BME280;74725;44.210;17.906;2024-03-23T05:38:24;97964.34;;;8.99;88.74
84501;BME280;74725;44.210;17.906;2024-03-23T05:40:58;97965.16;;;8.96;87.82
84501;BME280;74725;44.210;17.906;2024-03-23T05:43:24;97965.59;;;8.95;88.38
84501;BME280;74725;44.210;17.906;2024-03-23T05:45:56;97976.44;;;8.75;90.58
84501;BME280;74725;44.210;17.906;2024-03-23T05:48:22;97977.94;;;8.79;90.53
84501;BME280;74725;44.210;17.906;2024-03-23T05:50:48;97972.88;;;8.78;90.57
84501;BME280;74725;44.210;17.906;2024-03-23T05:53:15;97963.53;;;8.79;90.95
84501;BME280;74725;44.210;17.906;2024-03-23T05:55:41;97978.94;;;8.89;90.42
84501;BME280;74725;44.210;17.906;2024-03-23T05:58:06;97975.31;;;8.96;90.67
84501;BME280;74725;44.210;17.906;2024-03-23T06:00:32;97973.56;;;9.05;90.18
84501;BME280;74725;44.210;17.906;2024-03-23T06:02:58;97974.97;;;9.14;89.80
84501;BME280;74725;44.210;17.906;2024-03-23T06:05:23;97973.19;;;9.27;90.46
84501;BME280;74725;44.210;17.906;2024-03-23T06:07:49;97969.81;;;9.39;90.78
84501;BME280;74725;44.210;17.906;2024-03-23T06:10:16;97972.13;;;9.41;90.13
84501;BME280;74725;44.210;17.906;2024-03-23T06:12:42;97964.50;;;9.52;90.08
84501;BME280;74725;44.210;17.906;2024-03-23T06:15:08;97957.91;;;9.69;89.82
84501;BME280;74725;44.210;17.906;2024-03-23T06:17:38;97959.47;;;9.87;89.76
84501;BME280;74725;44.210;17.906;2024-03-23T06:20:04;97962.69;;;10.01;89.02
84501;BME280;74725;44.210;17.906;2024-03-23T06:22:32;97958.50;;;10.13;88.75
84501;BME280;74725;44.210;17.906;2024-03-23T06:24:57;97952.31;;;10.29;88.99
84501;BME280;74725;44.210;17.906;2024-03-23T06:27:23;97952.44;;;10.42;88.73
84501;BME280;74725;44.210;17.906;2024-03-23T06:29:49;97956.53;;;10.50;87.48
84501;BME280;74725;44.210;17.906;2024-03-23T06:32:14;97947.63;;;10.62;86.58
84501;BME280;74725;44.210;17.906;2024-03-23T06:34:43;97949.41;;;10.69;87.06
84501;BME280;74725;44.210;17.906;2024-03-23T06:37:08;97952.31;;;10.78;86.42
84501;BME280;74725;44.210;17.906;2024-03-23T06:39:36;97949.41;;;10.85;85.93
84501;BME280;74725;44.210;17.906;2024-03-23T06:42:02;97948.31;;;10.95;85.38
84501;BME280;74725;44.210;17.906;2024-03-23T06:44:28;97948.50;;;11.05;85.39
84501;BME280;74725;44.210;17.906;2024-03-23T06:46:54;97944.81;;;11.11;84.82
84501;BME280;74725;44.210;17.906;2024-03-23T06:49:20;97942.75;;;11.15;85.43
84501;BME280;74725;44.210;17.906;2024-03-23T06:51:46;97938.16;;;11.25;84.69
84501;BME280;74725;44.210;17.906;2024-03-23T06:54:12;97941.03;;;11.34;85.15
84501;BME280;74725;44.210;17.906;2024-03-23T06:56:37;97943.34;;;11.36;83.52
84501;BME280;74725;44.210;17.906;2024-03-23T06:59:03;97941.44;;;11.20;83.85
84501;BME280;74725;44.210;17.906;2024-03-23T07:01:29;97946.50;;;11.34;83.89
84501;BME280;74725;44.210;17.906;2024-03-23T07:03:55;97938.75;;;11.45;83.18
84501;BME280;74725;44.210;17.906;2024-03-23T07:06:21;97929.13;;;11.54;83.24
84501;BME280;74725;44.210;17.906;2024-03-23T07:08:46;97924.19;;;11.61;82.36
84501;BME280;74725;44.210;17.906;2024-03-23T07:11:12;97921.81;;;11.76;82.93
84501;BME280;74725;44.210;17.906;2024-03-23T07:13:43;97921.41;;;11.78;82.44
84501;BME280;74725;44.210;17.906;2024-03-23T07:16:08;97915.69;;;11.85;82.89
84501;BME280;74725;44.210;17.906;2024-03-23T07:18:34;97911.13;;;11.94;82.54
84501;BME280;74725;44.210;17.906;2024-03-23T07:21:00;97913.84;;;12.07;82.86
84501;BME280;74725;44.210;17.906;2024-03-23T07:23:25;97908.13;;;12.14;82.52
84501;BME280;74725;44.210;17.906;2024-03-23T07:26:01;97909.44;;;12.22;82.00
84501;BME280;74725;44.210;17.906;2024-03-23T07:28:27;97895.72;;;12.35;82.06
84501;BME280;74725;44.210;17.906;2024-03-23T07:31:07;97900.53;;;12.44;81.31
84501;BME280;74725;44.210;17.906;2024-03-23T07:33:37;97884.59;;;12.52;79.95
84501;BME280;74725;44.210;17.906;2024-03-23T07:36:04;97887.88;;;12.59;80.70
84501;BME280;74725;44.210;17.906;2024-03-23T07:38:30;97888.72;;;12.69;80.99
84501;BME280;74725;44.210;17.906;2024-03-23T07:41:04;97885.59;;;12.80;79.11
84501;BME280;74725;44.210;17.906;2024-03-23T07:43:29;97868.22;;;12.83;78.88
84501;BME280;74725;44.210;17.906;2024-03-23T07:45:55;97870.09;;;12.86;78.14
84501;BME280;74725;44.210;17.906;2024-03-23T07:48:21;97863.88;;;12.94;78.66
84501;BME280;74725;44.210;17.906;2024-03-23T07:51:07;97855.00;;;12.90;76.85
84501;BME280;74725;44.210;17.906;2024-03-23T07:53:34;97856.47;;;13.04;78.42
84501;BME280;74725;44.210;17.906;2024-03-23T07:56:06;97850.16;;;13.16;77.85
84501;BME280;74725;44.210;17.906;2024-03-23T07:58:32;97840.75;;;13.27;77.31
84501;BME280;74725;44.210;17.906;2024-03-23T08:01:14;97844.34;;;13.36;77.03
84501;BME280;74725;44.210;17.906;2024-03-23T08:03:42;97844.84;;;13.22;76.23
84501;BME280;74725;44.210;17.906;2024-03-23T08:06:13;97843.00;;;13.41;75.44
84501;BME280;74725;44.210;17.906;2024-03-23T08:08:40;97839.72;;;13.55;74.11
84501;BME280;74725;44.210;17.906;2024-03-23T08:11:06;97838.34;;;13.60;73.03
84501;BME280;74725;44.210;17.906;2024-03-23T08:13:33;97837.91;;;13.70;74.00
84501;BME280;74725;44.210;17.906;2024-03-23T08:16:00;97830.00;;;13.82;72.82
84501;BME280;74725;44.210;17.906;2024-03-23T08:18:26;97833.09;;;13.93;74.18
84501;BME280;74725;44.210;17.906;2024-03-23T08:21:01;97820.28;;;13.99;72.75
84501;BME280;74725;44.210;17.906;2024-03-23T08:23:29;97822.28;;;14.08;72.34
84501;BME280;74725;44.210;17.906;2024-03-23T08:25:58;97822.03;;;14.24;73.04
84501;BME280;74725;44.210;17.906;2024-03-23T08:28:25;97820.50;;;14.32;72.77
84501;BME280;74725;44.210;17.906;2024-03-23T08:30:51;97804.00;;;14.41;71.94
84501;BME280;74725;44.210;17.906;2024-03-23T08:33:17;97804.63;;;14.55;72.69
84501;BME280;74725;44.210;17.906;2024-03-23T08:35:42;97803.72;;;14.67;71.14
84501;BME280;74725;44.210;17.906;2024-03-23T08:38:08;97801.41;;;14.75;71.99
84501;BME280;74725;44.210;17.906;2024-03-23T08:40:33;97793.91;;;14.84;70.39
84501;BME280;74725;44.210;17.906;2024-03-23T08:42:59;97779.34;;;14.93;70.42
84501;BME280;74725;44.210;17.906;2024-03-23T08:45:25;97779.63;;;15.04;71.24
84501;BME280;74725;44.210;17.906;2024-03-23T08:47:51;97768.13;;;15.06;70.16
84501;BME280;74725;44.210;17.906;2024-03-23T08:50:17;97761.09;;;15.05;68.31
84501;BME280;74725;44.210;17.906;2024-03-23T08:52:42;97750.50;;;15.12;69.42
84501;BME280;74725;44.210;17.906;2024-03-23T08:55:08;97756.78;;;15.13;68.91
84501;BME280;74725;44.210;17.906;2024-03-23T08:57:35;97745.16;;;15.09;67.99
84501;BME280;74725;44.210;17.906;2024-03-23T09:00:02;97748.03;;;15.24;68.03
84501;BME280;74725;44.210;17.906;2024-03-23T09:02:27;97739.41;;;15.31;68.81
84501;BME280;74725;44.210;17.906;2024-03-23T09:04:53;97727.03;;;15.26;68.34
84501;BME280;74725;44.210;17.906;2024-03-23T09:07:18;97727.28;;;15.37;68.49
84501;BME280;74725;44.210;17.906;2024-03-23T09:09:44;97722.19;;;15.45;67.28
84501;BME280;74725;44.210;17.906;2024-03-23T09:12:10;97708.19;;;15.58;66.54
84501;BME280;74725;44.210;17.906;2024-03-23T09:14:35;97700.94;;;15.70;66.83
84501;BME280;74725;44.210;17.906;2024-03-23T09:17:01;97692.47;;;15.73;65.77
84501;BME280;74725;44.210;17.906;2024-03-23T09:19:28;97693.56;;;15.90;67.94
84501;BME280;74725;44.210;17.906;2024-03-23T09:21:54;97680.75;;;16.02;65.94
84501;BME280;74725;44.210;17.906;2024-03-23T09:24:19;97681.28;;;16.16;66.37
84501;BME280;74725;44.210;17.906;2024-03-23T09:26:45;97672.06;;;16.19;65.04
84501;BME280;74725;44.210;17.906;2024-03-23T09:29:10;97669.56;;;16.21;65.87
84501;BME280;74725;44.210;17.906;2024-03-23T09:31:36;97666.53;;;16.33;66.01
84501;BME280;74725;44.210;17.906;2024-03-23T09:34:04;97658.75;;;16.47;65.60
84501;BME280;74725;44.210;17.906;2024-03-23T09:36:29;97651.22;;;16.62;63.95
84501;BME280;74725;44.210;17.906;2024-03-23T09:38:55;97644.81;;;16.71;62.85
84501;BME280;74725;44.210;17.906;2024-03-23T09:41:20;97644.09;;;16.85;61.63
84501;BME280;74725;44.210;17.906;2024-03-23T09:43:46;97641.31;;;16.85;61.24
84501;BME280;74725;44.210;17.906;2024-03-23T09:46:14;97637.00;;;16.84;60.30
84501;BME280;74725;44.210;17.906;2024-03-23T09:48:41;97625.66;;;16.97;60.11
84501;BME280;74725;44.210;17.906;2024-03-23T09:51:09;97626.19;;;17.16;61.22
84501;BME280;74725;44.210;17.906;2024-03-23T09:53:35;97611.28;;;17.28;59.18
84501;BME280;74725;44.210;17.906;2024-03-23T09:56:00;97605.59;;;17.37;60.24
84501;BME280;74725;44.210;17.906;2024-03-23T09:58:26;97591.66;;;17.46;59.76
84501;BME280;74725;44.210;17.906;2024-03-23T10:00:52;97590.94;;;17.51;61.68
84501;BME280;74725;44.210;17.906;2024-03-23T10:03:17;97587.81;;;17.64;61.42
84501;BME280;74725;44.210;17.906;2024-03-23T10:05:43;97581.38;;;17.73;65.54
84501;BME280;74725;44.210;17.906;2024-03-23T10:10:44;97566.50;;;17.91;58.06
84501;BME280;74725;44.210;17.906;2024-03-23T10:13:10;97567.16;;;18.06;59.00
84501;BME280;74725;44.210;17.906;2024-03-23T10:15:38;97559.44;;;18.16;54.59
84501;BME280;74725;44.210;17.906;2024-03-23T10:20:41;97548.88;;;18.46;53.24
84501;BME280;74725;44.210;17.906;2024-03-23T10:23:16;97534.38;;;18.62;55.75
84501;BME280;74725;44.210;17.906;2024-03-23T10:25:41;97537.03;;;18.77;53.22
84501;BME280;74725;44.210;17.906;2024-03-23T10:28:07;97529.06;;;18.90;56.02
84501;BME280;74725;44.210;17.906;2024-03-23T10:30:53;97517.81;;;19.05;53.25
84501;BME280;74725;44.210;17.906;2024-03-23T10:33:19;97519.09;;;19.15;54.51
84501;BME280;74725;44.210;17.906;2024-03-23T10:35:47;97505.03;;;19.24;53.88
84501;BME280;74725;44.210;17.906;2024-03-23T10:38:13;97502.53;;;19.38;51.52
84501;BME280;74725;44.210;17.906;2024-03-23T10:40:39;97506.63;;;19.48;50.13
84501;BME280;74725;44.210;17.906;2024-03-23T10:43:06;97492.75;;;19.59;48.83
84501;BME280;74725;44.210;17.906;2024-03-23T10:45:33;97490.03;;;19.70;50.29
84501;BME280;74725;44.210;17.906;2024-03-23T10:47:59;97482.72;;;19.78;50.13
84501;BME280;74725;44.210;17.906;2024-03-23T10:50:25;97473.41;;;19.87;48.85
84501;BME280;74725;44.210;17.906;2024-03-23T10:52:52;97478.22;;;19.98;51.14
84501;BME280;74725;44.210;17.906;2024-03-23T10:55:19;97471.41;;;20.10;50.74
84501;BME280;74725;44.210;17.906;2024-03-23T10:57:54;97460.53;;;20.18;50.02
84501;BME280;74725;44.210;17.906;2024-03-23T11:00:21;97453.97;;;20.21;45.47
84501;BME280;74725;44.210;17.906;2024-03-23T11:02:48;97451.69;;;20.31;46.30
84501;BME280;74725;44.210;17.906;2024-03-23T11:07:52;97440.06;;;20.49;43.93
84501;BME280;74725;44.210;17.906;2024-03-23T11:10:26;97437.00;;;20.58;45.37
84501;BME280;74725;44.210;17.906;2024-03-23T11:12:53;97424.34;;;20.68;48.32
84501;BME280;74725;44.210;17.906;2024-03-23T11:15:19;97417.75;;;20.77;42.26
84501;BME280;74725;44.210;17.906;2024-03-23T11:18:07;97413.91;;;20.91;42.54
84501;BME280;74725;44.210;17.906;2024-03-23T11:20:37;97388.31;;;20.98;42.62
84501;BME280;74725;44.210;17.906;2024-03-23T11:23:04;97393.59;;;21.08;39.34
84501;BME280;74725;44.210;17.906;2024-03-23T11:25:29;97397.81;;;21.20;40.31
84501;BME280;74725;44.210;17.906;2024-03-23T11:28:10;97386.13;;;21.33;41.05
84501;BME280;74725;44.210;17.906;2024-03-23T11:30:37;97380.06;;;21.34;37.30
84501;BME280;74725;44.210;17.906;2024-03-23T11:33:06;97381.22;;;21.50;37.89
84501;BME280;74725;44.210;17.906;2024-03-23T11:38:08;97386.25;;;21.57;35.81
84501;BME280;74725;44.210;17.906;2024-03-23T11:40:47;97372.75;;;21.67;35.69
84501;BME280;74725;44.210;17.906;2024-03-23T11:43:17;97365.22;;;21.92;36.48
84501;BME280;74725;44.210;17.906;2024-03-23T11:45:45;97368.94;;;22.00;35.52
84501;BME280;74725;44.210;17.906;2024-03-23T11:48:16;97351.63;;;22.07;34.39
84501;BME280;74725;44.210;17.906;2024-03-23T11:50:56;97343.47;;;22.15;33.65
84501;BME280;74725;44.210;17.906;2024-03-23T11:53:24;97342.47;;;22.12;34.43
84501;BME280;74725;44.210;17.906;2024-03-23T11:55:59;97347.56;;;22.08;33.42
84501;BME280;74725;44.210;17.906;2024-03-23T11:58:28;97331.81;;;22.11;33.97
84501;BME280;74725;44.210;17.906;2024-03-23T12:01:03;97340.56;;;22.26;32.90
84501;BME280;74725;44.210;17.906;2024-03-23T12:03:30;97328.72;;;22.20;32.63
84501;BME280;74725;44.210;17.906;2024-03-23T12:06:01;97324.47;;;22.38;33.69
84501;BME280;74725;44.210;17.906;2024-03-23T12:08:35;97320.63;;;22.41;33.41
84501;BME280;74725;44.210;17.906;2024-03-23T12:11:06;97328.53;;;22.37;32.33
84501;BME280;74725;44.210;17.906;2024-03-23T12:13:32;97316.06;;;22.62;33.58
84501;BME280;74725;44.210;17.906;2024-03-23T12:16:16;97300.91;;;22.77;33.69
84501;BME280;74725;44.210;17.906;2024-03-23T12:18:43;97302.47;;;22.97;31.34
84501;BME280;74725;44.210;17.906;2024-03-23T12:21:09;97306.91;;;23.05;31.76
84501;BME280;74725;44.210;17.906;2024-03-23T12:23:36;97309.41;;;23.09;31.27
84501;BME280;74725;44.210;17.906;2024-03-23T12:26:01;97311.94;;;23.07;30.57
84501;BME280;74725;44.210;17.906;2024-03-23T12:28:28;97300.13;;;23.19;30.58
84501;BME280;74725;44.210;17.906;2024-03-23T12:30:53;97297.13;;;23.31;31.86
84501;BME280;74725;44.210;17.906;2024-03-23T12:33:20;97311.66;;;23.10;30.94
84501;BME280;74725;44.210;17.906;2024-03-23T12:35:47;97296.94;;;23.10;31.21
84501;BME280;74725;44.210;17.906;2024-03-23T12:38:12;97289.28;;;23.29;31.06
84501;BME280;74725;44.210;17.906;2024-03-23T12:40:38;97295.75;;;23.37;30.75
84501;BME280;74725;44.210;17.906;2024-03-23T12:43:04;97283.88;;;23.50;30.63
84501;BME280;74725;44.210;17.906;2024-03-23T12:45:29;97283.47;;;23.59;30.56
84501;BME280;74725;44.210;17.906;2024-03-23T12:47:55;97277.28;;;23.66;30.64
84501;BME280;74725;44.210;17.906;2024-03-23T12:50:21;97275.13;;;23.73;31.76
84501;BME280;74725;44.210;17.906;2024-03-23T12:52:47;97281.47;;;23.73;30.55
84501;BME280;74725;44.210;17.906;2024-03-23T12:55:13;97271.53;;;23.91;30.53
84501;BME280;74725;44.210;17.906;2024-03-23T12:57:39;97276.25;;;23.96;30.71
84501;BME280;74725;44.210;17.906;2024-03-23T13:00:06;97254.75;;;24.17;30.82
84501;BME280;74725;44.210;17.906;2024-03-23T13:02:32;97265.28;;;24.11;29.99
84501;BME280;74725;44.210;17.906;2024-03-23T13:05:00;97249.16;;;24.44;30.62
84501;BME280;74725;44.210;17.906;2024-03-23T13:07:26;97252.50;;;24.90;31.71
84501;BME280;74725;44.210;17.906;2024-03-23T13:09:52;97255.00;;;24.80;29.69
84501;BME280;74725;44.210;17.906;2024-03-23T13:12:21;97245.53;;;24.83;29.43
84501;BME280;74725;44.210;17.906;2024-03-23T13:14:47;97254.09;;;24.99;29.14
84501;BME280;74725;44.210;17.906;2024-03-23T13:17:13;97246.72;;;25.09;28.63
84501;BME280;74725;44.210;17.906;2024-03-23T13:19:39;97254.88;;;25.20;28.58
84501;BME280;74725;44.210;17.906;2024-03-23T13:22:05;97252.03;;;25.33;28.74
84501;BME280;74725;44.210;17.906;2024-03-23T13:24:31;97237.56;;;25.22;29.22
84501;BME280;74725;44.210;17.906;2024-03-23T13:26:57;97240.94;;;25.28;29.26
84501;BME280;74725;44.210;17.906;2024-03-23T13:29:23;97245.94;;;25.43;29.84
84501;BME280;74725;44.210;17.906;2024-03-23T13:31:50;97251.69;;;25.58;29.66
84501;BME280;74725;44.210;17.906;2024-03-23T13:34:17;97242.47;;;25.50;29.46
84501;BME280;74725;44.210;17.906;2024-03-23T13:36:43;97243.22;;;25.29;29.99
84501;BME280;74725;44.210;17.906;2024-03-23T13:39:09;97237.56;;;25.08;29.53
84501;BME280;74725;44.210;17.906;2024-03-23T13:41:39;97235.25;;;24.99;30.11
84501;BME280;74725;44.210;17.906;2024-03-23T13:44:08;97240.03;;;24.78;30.24
84501;BME280;74725;44.210;17.906;2024-03-23T13:46:38;97236.88;;;24.95;30.13
84501;BME280;74725;44.210;17.906;2024-03-23T13:49:07;97232.16;;;24.55;30.46
84501;BME280;74725;44.210;17.906;2024-03-23T13:51:32;97222.69;;;24.45;30.27
84501;BME280;74725;44.210;17.906;2024-03-23T13:53:58;97220.44;;;24.78;30.68
84501;BME280;74725;44.210;17.906;2024-03-23T13:56:29;97205.50;;;24.75;30.47
84501;BME280;74725;44.210;17.906;2024-03-23T13:58:58;97212.56;;;24.55;30.75